sensor_id;sensor_type;location;lat;lon;timestamp;pressure;altitude;pressure_sealevel;temperature;humidity
43745;BME280;29359;53.048;8.732;2023-12-07T00:00:08;101855.03;;;1.02;87.98
43745;BME280;29359;53.048;8.732;2023-12-07T00:02:10;101853.34;;;1.02;87.98
43745;BME280;29359;53.048;8.732;2023-12-07T00:04:14;101845.63;;;1.02;87.98
43745;BME280;29359;53.048;8.732;2023-12-07T00:06:15;101857.63;;;1.02;88.17
43745;BME280;29359;53.048;8.732;2023-12-07T00:08:17;101858.47;;;1.02;88.10
43745;BME280;29359;53.048;8.732;2023-12-07T00:10:19;101853.34;;;1.02;87.95
43745;BME280;29359;53.048;8.732;2023-12-07T00:12:21;101860.22;;;1.03;88.19
43745;BME280;29359;53.048;8.732;2023-12-07T00:14:23;101860.22;;;1.03;87.98
43745;BME280;29359;53.048;8.732;2023-12-07T00:16:25;101859.38;;;1.03;88.15
43745;BME280;29359;53.048;8.732;2023-12-07T00:18:26;101867.97;;;1.05;87.94
43745;BME280;29359;53.048;8.732;2023-12-07T00:20:29;101864.53;;;1.06;88.00
43745;BME280;29359;53.048;8.732;2023-12-07T00:22:31;101861.97;;;1.04;88.11
43745;BME280;29359;53.048;8.732;2023-12-07T00:24:33;101861.09;;;1.05;87.97
43745;BME280;29359;53.048;8.732;2023-12-07T00:26:34;101855.09;;;1.05;88.11
43745;BME280;29359;53.048;8.732;2023-12-07T00:28:36;101855.09;;;1.05;88.07
43745;BME280;29359;53.048;8.732;2023-12-07T00:30:38;101851.66;;;1.04;87.85
43745;BME280;29359;53.048;8.732;2023-12-07T00:32:40;101860.28;;;1.06;88.15
43745;BME280;29359;53.048;8.732;2023-12-07T00:34:45;101860.28;;;1.06;88.19
43745;BME280;29359;53.048;8.732;2023-12-07T00:36:47;101858.53;;;1.05;87.94
43745;BME280;29359;53.048;8.732;2023-12-07T00:38:48;101861.97;;;1.06;87.87
43745;BME280;29359;53.048;8.732;2023-12-07T00:40:50;101859.38;;;1.04;87.84
43745;BME280;29359;53.048;8.732;2023-12-07T00:42:52;101851.69;;;1.06;87.94
43745;BME280;29359;53.048;8.732;2023-12-07T00:44:54;101860.28;;;1.06;87.85
43745;BME280;29359;53.048;8.732;2023-12-07T00:46:56;101868.03;;;1.08;87.90
43745;BME280;29359;53.048;8.732;2023-12-07T00:48:58;101873.16;;;1.06;87.74
43745;BME280;29359;53.048;8.732;2023-12-07T00:51:00;101875.72;;;1.06;87.75
43745;BME280;29359;53.048;8.732;2023-12-07T00:53:01;101876.53;;;1.05;87.73
43745;BME280;29359;53.048;8.732;2023-12-07T00:55:04;101876.53;;;1.05;87.82
43745;BME280;29359;53.048;8.732;2023-12-07T00:57:12;101878.25;;;1.05;87.93
43745;BME280;29359;53.048;8.732;2023-12-07T00:59:14;101881.69;;;1.04;88.03
43745;BME280;29359;53.048;8.732;2023-12-07T01:01:16;101883.38;;;1.03;87.67
43745;BME280;29359;53.048;8.732;2023-12-07T01:03:18;101886.81;;;1.04;87.88
43745;BME280;29359;53.048;8.732;2023-12-07T01:05:19;101881.69;;;1.04;87.84
43745;BME280;29359;53.048;8.732;2023-12-07T01:07:21;101888.53;;;1.03;87.85
43745;BME280;29359;53.048;8.732;2023-12-07T01:09:23;101892.84;;;1.04;87.71
43745;BME280;29359;53.048;8.732;2023-12-07T01:11:25;101893.69;;;1.05;87.65
43745;BME280;29359;53.048;8.732;2023-12-07T01:13:26;101896.25;;;1.05;87.77
43745;BME280;29359;53.048;8.732;2023-12-07T01:15:28;101906.59;;;1.06;87.58
43745;BME280;29359;53.048;8.732;2023-12-07T01:17:30;101906.59;;;1.06;87.80
43745;BME280;29359;53.048;8.732;2023-12-07T01:19:32;101909.13;;;1.05;87.67
43745;BME280;29359;53.048;8.732;2023-12-07T01:21:34;101909.13;;;1.05;87.87
43745;BME280;29359;53.048;8.732;2023-12-07T01:23:35;101912.56;;;1.05;87.82
43745;BME280;29359;53.048;8.732;2023-12-07T01:25:37;101916.00;;;1.06;88.07
43745;BME280;29359;53.048;8.732;2023-12-07T01:27:39;101916.91;;;1.06;87.78
43745;BME280;29359;53.048;8.732;2023-12-07T01:29:41;101912.63;;;1.07;87.68
43745;BME280;29359;53.048;8.732;2023-12-07T01:31:43;101922.03;;;1.06;87.72
43745;BME280;29359;53.048;8.732;2023-12-07T01:33:45;101921.16;;;1.06;87.57
43745;BME280;29359;53.048;8.732;2023-12-07T01:35:47;101923.75;;;1.07;87.79
43745;BME280;29359;53.048;8.732;2023-12-07T01:37:49;101925.50;;;1.08;87.85
43745;BME280;29359;53.048;8.732;2023-12-07T01:39:51;101922.94;;;1.10;87.60
43745;BME280;29359;53.048;8.732;2023-12-07T01:41:52;101920.34;;;1.08;87.50
43745;BME280;29359;53.048;8.732;2023-12-07T01:43:54;101922.13;;;1.11;87.56
43745;BME280;29359;53.048;8.732;2023-12-07T01:45:57;101921.28;;;1.12;87.71
43745;BME280;29359;53.048;8.732;2023-12-07T01:47:59;101919.56;;;1.12;87.48
43745;BME280;29359;53.048;8.732;2023-12-07T01:50:02;101922.16;;;1.14;87.55
43745;BME280;29359;53.048;8.732;2023-12-07T01:52:08;101928.19;;;1.14;87.51
43745;BME280;29359;53.048;8.732;2023-12-07T01:54:10;101929.00;;;1.13;87.41
43745;BME280;29359;53.048;8.732;2023-12-07T01:56:12;101925.63;;;1.16;87.55
43745;BME280;29359;53.048;8.732;2023-12-07T01:58:15;101923.91;;;1.16;87.54
43745;BME280;29359;53.048;8.732;2023-12-07T02:00:19;101923.91;;;1.16;87.62
43745;BME280;29359;53.048;8.732;2023-12-07T02:02:21;101925.66;;;1.17;87.34
43745;BME280;29359;53.048;8.732;2023-12-07T02:04:23;101929.97;;;1.18;87.53
43745;BME280;29359;53.048;8.732;2023-12-07T02:06:25;101922.28;;;1.20;87.26
43745;BME280;29359;53.048;8.732;2023-12-07T02:08:28;101926.53;;;1.18;87.34
43745;BME280;29359;53.048;8.732;2023-12-07T02:10:30;101924.78;;;1.15;87.26
43745;BME280;29359;53.048;8.732;2023-12-07T02:12:32;101925.63;;;1.14;87.57
43745;BME280;29359;53.048;8.732;2023-12-07T02:14:34;101925.63;;;1.14;87.56
43745;BME280;29359;53.048;8.732;2023-12-07T02:16:44;101923.91;;;1.16;87.57
43745;BME280;29359;53.048;8.732;2023-12-07T02:18:55;101928.31;;;1.22;87.20
43745;BME280;29359;53.048;8.732;2023-12-07T02:21:15;101929.19;;;1.22;87.26
43745;BME280;29359;53.048;8.732;2023-12-07T02:23:20;101923.13;;;1.20;87.23
43745;BME280;29359;53.048;8.732;2023-12-07T02:25:48;101933.44;;;1.20;87.25
43745;BME280;29359;53.048;8.732;2023-12-07T02:27:52;101936.84;;;1.21;87.28
43745;BME280;29359;53.048;8.732;2023-12-07T02:29:54;101933.41;;;1.19;87.18
43745;BME280;29359;53.048;8.732;2023-12-07T02:31:56;101939.34;;;1.16;87.14
43745;BME280;29359;53.048;8.732;2023-12-07T02:33:58;101935.06;;;1.15;87.43
43745;BME280;29359;53.048;8.732;2023-12-07T02:36:00;101936.78;;;1.16;87.44
43745;BME280;29359;53.048;8.732;2023-12-07T02:38:02;101931.63;;;1.16;87.28
43745;BME280;29359;53.048;8.732;2023-12-07T02:40:06;101930.84;;;1.19;87.27
43745;BME280;29359;53.048;8.732;2023-12-07T02:42:13;101929.09;;;1.18;87.21
43745;BME280;29359;53.048;8.732;2023-12-07T02:44:15;101935.13;;;1.18;87.45
43745;BME280;29359;53.048;8.732;2023-12-07T02:46:17;101933.34;;;1.14;87.16
43745;BME280;29359;53.048;8.732;2023-12-07T02:48:20;101930.75;;;1.14;87.18
43745;BME280;29359;53.048;8.732;2023-12-07T02:50:22;101929.84;;;1.12;87.30
43745;BME280;29359;53.048;8.732;2023-12-07T02:52:24;101932.44;;;1.12;87.21
43745;BME280;29359;53.048;8.732;2023-12-07T02:54:26;101941.00;;;1.11;87.26
43745;BME280;29359;53.048;8.732;2023-12-07T02:56:28;101940.94;;;1.10;87.19
43745;BME280;29359;53.048;8.732;2023-12-07T02:58:30;101936.69;;;1.10;87.31
43745;BME280;29359;53.048;8.732;2023-12-07T03:00:32;101936.72;;;1.13;87.47
43745;BME280;29359;53.048;8.732;2023-12-07T03:02:35;101938.50;;;1.16;87.32
43745;BME280;29359;53.048;8.732;2023-12-07T03:04:37;101935.06;;;1.17;87.33
43745;BME280;29359;53.048;8.732;2023-12-07T03:06:38;101937.66;;;1.17;87.22
43745;BME280;29359;53.048;8.732;2023-12-07T03:08:40;101936.84;;;1.18;87.13
43745;BME280;29359;53.048;8.732;2023-12-07T03:10:42;101937.66;;;1.17;87.28
43745;BME280;29359;53.048;8.732;2023-12-07T03:12:44;101941.94;;;1.16;87.31
43745;BME280;29359;53.048;8.732;2023-12-07T03:14:45;101938.50;;;1.16;87.08
43745;BME280;29359;53.048;8.732;2023-12-07T03:16:47;101935.91;;;1.16;87.30
43745;BME280;29359;53.048;8.732;2023-12-07T03:18:49;101942.00;;;1.19;87.08
43745;BME280;29359;53.048;8.732;2023-12-07T03:20:51;101946.22;;;1.17;87.04
43745;BME280;29359;53.048;8.732;2023-12-07T03:22:53;101953.13;;;1.18;87.04
43745;BME280;29359;53.048;8.732;2023-12-07T03:24:54;101946.22;;;1.17;87.05
43745;BME280;29359;53.048;8.732;2023-12-07T03:26:57;101953.13;;;1.18;87.17
43745;BME280;29359;53.048;8.732;2023-12-07T03:28:59;101951.44;;;1.20;87.15
43745;BME280;29359;53.048;8.732;2023-12-07T03:31:00;101958.34;;;1.23;87.40
43745;BME280;29359;53.048;8.732;2023-12-07T03:33:02;101951.50;;;1.25;87.36
43745;BME280;29359;53.048;8.732;2023-12-07T03:35:04;101954.13;;;1.27;87.16
43745;BME280;29359;53.048;8.732;2023-12-07T03:37:06;101955.00;;;1.29;87.02
43745;BME280;29359;53.048;8.732;2023-12-07T03:39:08;101957.59;;;1.29;86.94
43745;BME280;29359;53.048;8.732;2023-12-07T03:41:11;101963.59;;;1.28;86.92
43745;BME280;29359;53.048;8.732;2023-12-07T03:43:13;101960.09;;;1.26;86.98
43745;BME280;29359;53.048;8.732;2023-12-07T03:45:15;101958.31;;;1.21;86.78
43745;BME280;29359;53.048;8.732;2023-12-07T03:47:17;101970.31;;;1.19;87.01
43745;BME280;29359;53.048;8.732;2023-12-07T03:49:18;101964.22;;;1.16;86.88
43745;BME280;29359;53.048;8.732;2023-12-07T03:51:20;101966.75;;;1.13;86.88
43745;BME280;29359;53.048;8.732;2023-12-07T03:53:22;101965.06;;;1.15;87.05
43745;BME280;29359;53.048;8.732;2023-12-07T03:55:24;101976.28;;;1.18;86.96
43745;BME280;29359;53.048;8.732;2023-12-07T03:57:26;101971.19;;;1.21;87.10
43745;BME280;29359;53.048;8.732;2023-12-07T03:59:28;101966.06;;;1.23;87.15
43745;BME280;29359;53.048;8.732;2023-12-07T04:01:30;101970.38;;;1.24;86.82
43745;BME280;29359;53.048;8.732;2023-12-07T04:03:32;101971.25;;;1.25;86.82
43745;BME280;29359;53.048;8.732;2023-12-07T04:05:34;101976.38;;;1.25;86.98
43745;BME280;29359;53.048;8.732;2023-12-07T04:07:36;101971.19;;;1.21;86.77
43745;BME280;29359;53.048;8.732;2023-12-07T04:09:38;101970.31;;;1.19;86.69
43745;BME280;29359;53.048;8.732;2023-12-07T04:11:39;101974.59;;;1.20;86.91
43745;BME280;29359;53.048;8.732;2023-12-07T04:13:42;101970.31;;;1.21;87.13
43745;BME280;29359;53.048;8.732;2023-12-07T04:15:44;101973.75;;;1.21;87.04
43745;BME280;29359;53.048;8.732;2023-12-07T04:17:46;101977.22;;;1.23;86.77
43745;BME280;29359;53.048;8.732;2023-12-07T04:19:48;101972.94;;;1.22;86.94
43745;BME280;29359;53.048;8.732;2023-12-07T04:21:50;101976.31;;;1.21;86.91
43745;BME280;29359;53.048;8.732;2023-12-07T04:23:52;101971.16;;;1.20;86.77
43745;BME280;29359;53.048;8.732;2023-12-07T04:25:53;101977.16;;;1.19;86.87
43745;BME280;29359;53.048;8.732;2023-12-07T04:27:55;101972.88;;;1.19;86.84
43745;BME280;29359;53.048;8.732;2023-12-07T04:29:57;101974.59;;;1.19;86.93
43745;BME280;29359;53.048;8.732;2023-12-07T04:31:59;101969.44;;;1.19;86.84
43745;BME280;29359;53.048;8.732;2023-12-07T04:34:01;101965.94;;;1.17;86.60
43745;BME280;29359;53.048;8.732;2023-12-07T04:36:03;101973.66;;;1.15;86.91
43745;BME280;29359;53.048;8.732;2023-12-07T04:38:06;101965.88;;;1.12;86.70
43745;BME280;29359;53.048;8.732;2023-12-07T04:40:08;101957.22;;;1.09;86.81
43745;BME280;29359;53.048;8.732;2023-12-07T04:42:12;101961.50;;;1.08;86.75
43745;BME280;29359;53.048;8.732;2023-12-07T04:44:13;101955.59;;;1.12;86.78
43745;BME280;29359;53.048;8.732;2023-12-07T04:46:15;101960.75;;;1.14;87.05
43745;BME280;29359;53.048;8.732;2023-12-07T04:48:18;101961.63;;;1.14;86.73
43745;BME280;29359;53.048;8.732;2023-12-07T04:50:20;101959.06;;;1.14;86.99
43745;BME280;29359;53.048;8.732;2023-12-07T04:52:22;101964.22;;;1.14;86.82
43745;BME280;29359;53.048;8.732;2023-12-07T04:54:24;101970.16;;;1.13;86.93
43745;BME280;29359;53.048;8.732;2023-12-07T04:56:26;101972.75;;;1.13;86.67
43745;BME280;29359;53.048;8.732;2023-12-07T04:58:27;101977.03;;;1.13;86.98
43745;BME280;29359;53.048;8.732;2023-12-07T05:00:29;101982.22;;;1.14;86.96
43745;BME280;29359;53.048;8.732;2023-12-07T05:02:31;101977.88;;;1.13;86.98
43745;BME280;29359;53.048;8.732;2023-12-07T05:04:33;101974.50;;;1.14;86.73
43745;BME280;29359;53.048;8.732;2023-12-07T05:06:35;101971.94;;;1.16;86.62
43745;BME280;29359;53.048;8.732;2023-12-07T05:08:39;101975.31;;;1.13;86.93
43745;BME280;29359;53.048;8.732;2023-12-07T05:10:40;101975.31;;;1.12;86.72
43745;BME280;29359;53.048;8.732;2023-12-07T05:12:42;101977.88;;;1.12;86.86
43745;BME280;29359;53.048;8.732;2023-12-07T05:14:44;101974.47;;;1.13;86.69
43745;BME280;29359;53.048;8.732;2023-12-07T05:16:46;101977.88;;;1.13;86.79
43745;BME280;29359;53.048;8.732;2023-12-07T05:18:50;101971.03;;;1.14;86.69
43745;BME280;29359;53.048;8.732;2023-12-07T05:20:51;101977.09;;;1.16;87.02
43745;BME280;29359;53.048;8.732;2023-12-07T05:22:53;101979.66;;;1.16;86.94
43745;BME280;29359;53.048;8.732;2023-12-07T05:24:55;101980.53;;;1.16;86.90
43745;BME280;29359;53.048;8.732;2023-12-07T05:26:57;101986.53;;;1.15;86.84
43745;BME280;29359;53.048;8.732;2023-12-07T05:28:58;101984.75;;;1.13;86.74
43745;BME280;29359;53.048;8.732;2023-12-07T05:31:00;101988.16;;;1.12;86.78
43745;BME280;29359;53.048;8.732;2023-12-07T05:33:02;101990.75;;;1.13;86.79
43745;BME280;29359;53.048;8.732;2023-12-07T05:35:04;101991.63;;;1.14;86.81
43745;BME280;29359;53.048;8.732;2023-12-07T05:37:07;101989.94;;;1.14;86.89
43745;BME280;29359;53.048;8.732;2023-12-07T05:39:09;101981.31;;;1.12;86.55
43745;BME280;29359;53.048;8.732;2023-12-07T05:41:12;101983.81;;;1.09;86.64
43745;BME280;29359;53.048;8.732;2023-12-07T05:43:14;101982.06;;;1.07;86.69
43745;BME280;29359;53.048;8.732;2023-12-07T05:45:18;101982.94;;;1.07;86.90
43745;BME280;29359;53.048;8.732;2023-12-07T05:47:20;101983.78;;;1.06;86.93
43745;BME280;29359;53.048;8.732;2023-12-07T05:49:22;101981.16;;;1.03;86.97
43745;BME280;29359;53.048;8.732;2023-12-07T05:51:24;101987.16;;;1.05;87.06
43745;BME280;29359;53.048;8.732;2023-12-07T05:53:26;101986.38;;;1.06;86.92
43745;BME280;29359;53.048;8.732;2023-12-07T05:55:27;101988.94;;;1.06;86.82
43745;BME280;29359;53.048;8.732;2023-12-07T05:57:29;101986.38;;;1.06;87.00
43745;BME280;29359;53.048;8.732;2023-12-07T05:59:36;101988.94;;;1.06;86.95
43745;BME280;29359;53.048;8.732;2023-12-07T06:01:37;101984.59;;;1.05;87.08
43745;BME280;29359;53.048;8.732;2023-12-07T06:03:40;101989.75;;;1.05;87.09
43745;BME280;29359;53.048;8.732;2023-12-07T06:05:42;101991.44;;;1.03;86.91
43745;BME280;29359;53.048;8.732;2023-12-07T06:07:47;101984.59;;;1.04;87.16
43745;BME280;29359;53.048;8.732;2023-12-07T06:09:48;102000.03;;;1.04;87.22
43745;BME280;29359;53.048;8.732;2023-12-07T06:11:50;101994.03;;;1.05;87.27
43745;BME280;29359;53.048;8.732;2023-12-07T06:13:53;102002.59;;;1.05;87.04
43745;BME280;29359;53.048;8.732;2023-12-07T06:15:56;102007.75;;;1.05;87.08
43745;BME280;29359;53.048;8.732;2023-12-07T06:17:58;102007.81;;;1.08;87.14
43745;BME280;29359;53.048;8.732;2023-12-07T06:20:00;102002.69;;;1.10;87.13
43745;BME280;29359;53.048;8.732;2023-12-07T06:22:02;102006.16;;;1.10;87.02
43745;BME280;29359;53.048;8.732;2023-12-07T06:24:04;102007.03;;;1.11;87.19
43745;BME280;29359;53.048;8.732;2023-12-07T06:26:06;102012.97;;;1.08;87.22
43745;BME280;29359;53.048;8.732;2023-12-07T06:28:08;102013.84;;;1.09;86.94
43745;BME280;29359;53.048;8.732;2023-12-07T06:30:10;102018.13;;;1.10;86.93
43745;BME280;29359;53.048;8.732;2023-12-07T06:32:12;102021.59;;;1.10;87.16
43745;BME280;29359;53.048;8.732;2023-12-07T06:34:14;102018.97;;;1.09;87.10
43745;BME280;29359;53.048;8.732;2023-12-07T06:36:20;102016.41;;;1.09;87.17
43745;BME280;29359;53.048;8.732;2023-12-07T06:38:22;102016.41;;;1.09;86.98
43745;BME280;29359;53.048;8.732;2023-12-07T06:40:24;102014.69;;;1.09;87.24
43745;BME280;29359;53.048;8.732;2023-12-07T06:42:26;102024.13;;;1.09;87.19
43745;BME280;29359;53.048;8.732;2023-12-07T06:44:28;102018.13;;;1.08;87.09
43745;BME280;29359;53.048;8.732;2023-12-07T06:46:30;102017.28;;;1.09;87.14
43745;BME280;29359;53.048;8.732;2023-12-07T06:48:32;102011.31;;;1.10;87.24
43745;BME280;29359;53.048;8.732;2023-12-07T06:50:34;102007.81;;;1.08;86.97
43745;BME280;29359;53.048;8.732;2023-12-07T06:52:36;102014.69;;;1.08;87.02
43745;BME280;29359;53.048;8.732;2023-12-07T06:54:39;102010.41;;;1.08;87.04
43745;BME280;29359;53.048;8.732;2023-12-07T06:56:40;102008.69;;;1.09;87.04
43745;BME280;29359;53.048;8.732;2023-12-07T06:58:42;102004.47;;;1.12;87.13
43745;BME280;29359;53.048;8.732;2023-12-07T07:00:44;102010.53;;;1.16;87.13
43745;BME280;29359;53.048;8.732;2023-12-07T07:02:46;102013.13;;;1.17;87.10
43745;BME280;29359;53.048;8.732;2023-12-07T07:04:47;102013.13;;;1.17;86.89
43745;BME280;29359;53.048;8.732;2023-12-07T07:06:50;102013.19;;;1.20;87.10
43745;BME280;29359;53.048;8.732;2023-12-07T07:08:53;102014.91;;;1.20;86.81
43745;BME280;29359;53.048;8.732;2023-12-07T07:10:58;102011.47;;;1.19;86.86
43745;BME280;29359;53.048;8.732;2023-12-07T07:13:00;102014.91;;;1.18;86.86
43745;BME280;29359;53.048;8.732;2023-12-07T07:15:07;102022.63;;;1.20;87.15
43745;BME280;29359;53.048;8.732;2023-12-07T07:17:08;102013.97;;;1.16;86.88
43745;BME280;29359;53.048;8.732;2023-12-07T07:19:10;102019.94;;;1.14;86.92
43745;BME280;29359;53.048;8.732;2023-12-07T07:21:12;102024.22;;;1.13;86.98
43745;BME280;29359;53.048;8.732;2023-12-07T07:23:14;102028.56;;;1.17;87.07
43745;BME280;29359;53.048;8.732;2023-12-07T07:25:16;102029.50;;;1.19;86.86
43745;BME280;29359;53.048;8.732;2023-12-07T07:27:20;102020.84;;;1.17;86.89
43745;BME280;29359;53.048;8.732;2023-12-07T07:29:22;102024.28;;;1.16;86.80
43745;BME280;29359;53.048;8.732;2023-12-07T07:31:27;102022.50;;;1.14;87.04
43745;BME280;29359;53.048;8.732;2023-12-07T07:33:29;102026.75;;;1.12;86.74
43745;BME280;29359;53.048;8.732;2023-12-07T07:35:31;102026.69;;;1.09;86.76
43745;BME280;29359;53.048;8.732;2023-12-07T07:37:33;102037.06;;;1.13;86.78
43745;BME280;29359;53.048;8.732;2023-12-07T07:39:35;102039.72;;;1.16;87.02
43745;BME280;29359;53.048;8.732;2023-12-07T07:41:37;102039.78;;;1.19;87.10
43745;BME280;29359;53.048;8.732;2023-12-07T07:43:38;102041.50;;;1.20;86.98
43745;BME280;29359;53.048;8.732;2023-12-07T07:45:40;102050.09;;;1.21;86.92
43745;BME280;29359;53.048;8.732;2023-12-07T07:47:42;102045.00;;;1.22;86.70
43745;BME280;29359;53.048;8.732;2023-12-07T07:49:44;102043.28;;;1.23;86.94
43745;BME280;29359;53.048;8.732;2023-12-07T07:51:46;102037.28;;;1.22;86.86
43745;BME280;29359;53.048;8.732;2023-12-07T07:53:48;102042.44;;;1.22;86.60
43745;BME280;29359;53.048;8.732;2023-12-07T07:55:50;102037.22;;;1.19;86.72
43745;BME280;29359;53.048;8.732;2023-12-07T07:57:51;102034.63;;;1.19;86.86
43745;BME280;29359;53.048;8.732;2023-12-07T07:59:53;102044.13;;;1.22;87.12
43745;BME280;29359;53.048;8.732;2023-12-07T08:01:55;102043.31;;;1.25;86.96
43745;BME280;29359;53.048;8.732;2023-12-07T08:03:57;102044.16;;;1.25;86.94
43745;BME280;29359;53.048;8.732;2023-12-07T08:05:58;102039.00;;;1.23;86.91
43745;BME280;29359;53.048;8.732;2023-12-07T08:08:00;102040.66;;;1.21;86.82
43745;BME280;29359;53.048;8.732;2023-12-07T08:10:02;102048.38;;;1.20;86.70
43745;BME280;29359;53.048;8.732;2023-12-07T08:12:05;102050.06;;;1.18;86.92
43745;BME280;29359;53.048;8.732;2023-12-07T08:14:08;102047.50;;;1.19;86.77
43745;BME280;29359;53.048;8.732;2023-12-07T08:16:10;102055.22;;;1.19;86.81
43745;BME280;29359;53.048;8.732;2023-12-07T08:18:12;102057.78;;;1.19;87.11
43745;BME280;29359;53.048;8.732;2023-12-07T08:20:14;102059.53;;;1.20;87.03
43745;BME280;29359;53.048;8.732;2023-12-07T08:22:16;102062.16;;;1.22;86.92
43745;BME280;29359;53.048;8.732;2023-12-07T08:24:18;102060.44;;;1.24;87.08
43745;BME280;29359;53.048;8.732;2023-12-07T08:26:19;102056.16;;;1.25;86.82
43745;BME280;29359;53.048;8.732;2023-12-07T08:28:21;102057.09;;;1.27;86.88
43745;BME280;29359;53.048;8.732;2023-12-07T08:30:23;102060.53;;;1.27;86.98
43745;BME280;29359;53.048;8.732;2023-12-07T08:32:25;102056.25;;;1.29;86.94
43745;BME280;29359;53.048;8.732;2023-12-07T08:34:27;102052.88;;;1.30;86.92
43745;BME280;29359;53.048;8.732;2023-12-07T08:36:29;102057.16;;;1.31;86.96
43745;BME280;29359;53.048;8.732;2023-12-07T08:38:31;102052.03;;;1.31;86.76
43745;BME280;29359;53.048;8.732;2023-12-07T08:40:33;102061.44;;;1.31;86.89
43745;BME280;29359;53.048;8.732;2023-12-07T08:42:35;102061.47;;;1.32;86.78
43745;BME280;29359;53.048;8.732;2023-12-07T08:44:37;102064.88;;;1.31;86.78
43745;BME280;29359;53.048;8.732;2023-12-07T08:46:39;102064.03;;;1.32;86.92
43745;BME280;29359;53.048;8.732;2023-12-07T08:48:41;102064.91;;;1.33;86.77
43745;BME280;29359;53.048;8.732;2023-12-07T08:50:44;102065.75;;;1.32;86.56
43745;BME280;29359;53.048;8.732;2023-12-07T08:52:45;102069.16;;;1.31;86.67
43745;BME280;29359;53.048;8.732;2023-12-07T08:54:56;102072.56;;;1.30;86.87
43745;BME280;29359;53.048;8.732;2023-12-07T08:56:58;102080.28;;;1.30;87.05
43745;BME280;29359;53.048;8.732;2023-12-07T08:59:00;102078.63;;;1.32;86.93
43745;BME280;29359;53.048;8.732;2023-12-07T09:01:02;102081.25;;;1.35;86.78
43745;BME280;29359;53.048;8.732;2023-12-07T09:03:03;102081.28;;;1.36;86.96
43745;BME280;29359;53.048;8.732;2023-12-07T09:05:06;102082.16;;;1.37;86.74
43745;BME280;29359;53.048;8.732;2023-12-07T09:07:08;102081.34;;;1.38;86.74
43745;BME280;29359;53.048;8.732;2023-12-07T09:09:11;102082.16;;;1.37;86.66
43745;BME280;29359;53.048;8.732;2023-12-07T09:11:13;102084.72;;;1.37;86.76
43745;BME280;29359;53.048;8.732;2023-12-07T09:13:15;102088.13;;;1.36;86.68
43745;BME280;29359;53.048;8.732;2023-12-07T09:15:17;102087.28;;;1.35;86.80
43745;BME280;29359;53.048;8.732;2023-12-07T09:17:19;102089.00;;;1.36;87.07
43745;BME280;29359;53.048;8.732;2023-12-07T09:19:21;102088.22;;;1.40;86.78
43745;BME280;29359;53.048;8.732;2023-12-07T09:21:22;102089.16;;;1.44;86.96
43745;BME280;29359;53.048;8.732;2023-12-07T09:23:24;102093.50;;;1.46;86.71
43745;BME280;29359;53.048;8.732;2023-12-07T09:25:26;102094.34;;;1.45;86.84
43745;BME280;29359;53.048;8.732;2023-12-07T09:27:29;102085.81;;;1.48;86.66
43745;BME280;29359;53.048;8.732;2023-12-07T09:29:33;102091.88;;;1.53;86.86
43745;BME280;29359;53.048;8.732;2023-12-07T09:31:35;102099.72;;;1.58;86.59
43745;BME280;29359;53.048;8.732;2023-12-07T09:33:37;102093.72;;;1.57;86.54
43745;BME280;29359;53.048;8.732;2023-12-07T09:35:39;102093.72;;;1.59;86.71
43745;BME280;29359;53.048;8.732;2023-12-07T09:37:40;102084.28;;;1.59;86.57
43745;BME280;29359;53.048;8.732;2023-12-07T09:39:42;102085.22;;;1.63;86.60
43745;BME280;29359;53.048;8.732;2023-12-07T09:41:44;102085.25;;;1.64;86.69
43745;BME280;29359;53.048;8.732;2023-12-07T09:43:48;102087.00;;;1.65;86.33
43745;BME280;29359;53.048;8.732;2023-12-07T09:45:53;102085.25;;;1.64;86.55
43745;BME280;29359;53.048;8.732;2023-12-07T09:47:55;102081.88;;;1.67;86.64
43745;BME280;29359;53.048;8.732;2023-12-07T09:49:57;102086.16;;;1.68;86.29
43745;BME280;29359;53.048;8.732;2023-12-07T09:52:00;102090.50;;;1.70;86.39
43745;BME280;29359;53.048;8.732;2023-12-07T09:54:04;102088.00;;;1.74;86.49
43745;BME280;29359;53.048;8.732;2023-12-07T09:56:07;102088.88;;;1.74;86.17
43745;BME280;29359;53.048;8.732;2023-12-07T09:58:09;102095.75;;;1.75;86.16
43745;BME280;29359;53.048;8.732;2023-12-07T10:00:12;102088.94;;;1.77;86.34
43745;BME280;29359;53.048;8.732;2023-12-07T10:02:16;102089.00;;;1.82;86.53
43745;BME280;29359;53.048;8.732;2023-12-07T10:04:22;102092.50;;;1.85;86.21
43745;BME280;29359;53.048;8.732;2023-12-07T10:06:25;102093.38;;;1.86;86.27
43745;BME280;29359;53.048;8.732;2023-12-07T10:08:32;102093.44;;;1.89;86.19
43745;BME280;29359;53.048;8.732;2023-12-07T10:10:37;102097.72;;;1.90;85.98
43745;BME280;29359;53.048;8.732;2023-12-07T10:14:52;102093.44;;;1.89;86.12
43745;BME280;29359;53.048;8.732;2023-12-07T10:16:55;102094.31;;;1.92;86.26
43745;BME280;29359;53.048;8.732;2023-12-07T10:19:13;102088.41;;;1.96;86.10
43745;BME280;29359;53.048;8.732;2023-12-07T10:21:32;102086.69;;;1.97;86.11
43745;BME280;29359;53.048;8.732;2023-12-07T10:23:36;102085.91;;;2.01;86.02
43745;BME280;29359;53.048;8.732;2023-12-07T10:25:39;102084.19;;;2.02;85.75
43745;BME280;29359;53.048;8.732;2023-12-07T10:27:43;102081.56;;;2.00;85.74
43745;BME280;29359;53.048;8.732;2023-12-07T10:29:45;102084.16;;;2.00;85.92
43745;BME280;29359;53.048;8.732;2023-12-07T10:31:47;102073.91;;;2.03;86.07
43745;BME280;29359;53.048;8.732;2023-12-07T10:33:49;102074.81;;;2.05;85.88
43745;BME280;29359;53.048;8.732;2023-12-07T10:35:51;102069.66;;;2.07;86.04
43745;BME280;29359;53.048;8.732;2023-12-07T10:37:53;102075.69;;;2.07;85.66
43745;BME280;29359;53.048;8.732;2023-12-07T10:39:55;102068.88;;;2.09;85.65
43745;BME280;29359;53.048;8.732;2023-12-07T10:42:02;102071.50;;;2.12;85.99
43745;BME280;29359;53.048;8.732;2023-12-07T10:44:04;102077.50;;;2.13;85.95
43745;BME280;29359;53.048;8.732;2023-12-07T10:46:08;102073.22;;;2.15;85.67
43745;BME280;29359;53.048;8.732;2023-12-07T10:48:10;102076.69;;;2.15;85.52
43745;BME280;29359;53.048;8.732;2023-12-07T10:50:16;102068.06;;;2.13;85.22